Terminal Aerodrome Forecast
Issued by NWS Grand Forks, ND

Home | Current Version | Previous Version | Text Only | Print | Product List | Glossary On
Versions: 1 2 3 4 5 6 7 8 9 10 11 12 13 14 15 16
000
FTUS43 KFGF 231100
TAFFAR
TAF
KFAR 231122Z 2312/2412 14012KT P6SM SKC
     FM231500 17015G22KT P6SM BKN250
     FM231900 16015G22KT P6SM BKN080
     FM240100 16013KT P6SM VCSH BKN030=

USA.gov is the U.S. government's official web portal to all federal, state and local government web resources and services.